sensor_id;sensor_type;location;lat;lon;timestamp;P1;durP1;ratioP1;P2;durP2;ratioP2
45676;SDS011;31390;51.186;6.830;2023-01-25T00:01:59;26.17;;;23.60;;
45676;SDS011;31390;51.186;6.830;2023-01-25T00:04:25;24.70;;;22.30;;
45676;SDS011;31390;51.186;6.830;2023-01-25T00:06:52;22.47;;;20.30;;
45676;SDS011;31390;51.186;6.830;2023-01-25T00:09:19;24.57;;;21.93;;
45676;SDS011;31390;51.186;6.830;2023-01-25T00:11:45;22.70;;;20.53;;
45676;SDS011;31390;51.186;6.830;2023-01-25T00:14:12;24.53;;;22.13;;
45676;SDS011;31390;51.186;6.830;2023-01-25T00:16:39;23.77;;;21.47;;
45676;SDS011;31390;51.186;6.830;2023-01-25T00:19:06;25.87;;;23.30;;
45676;SDS011;31390;51.186;6.830;2023-01-25T00:21:33;24.97;;;22.57;;
45676;SDS011;31390;51.186;6.830;2023-01-25T00:24:00;25.67;;;23.27;;
45676;SDS011;31390;51.186;6.830;2023-01-25T00:26:30;26.03;;;23.53;;
45676;SDS011;31390;51.186;6.830;2023-01-25T00:28:57;26.53;;;24.03;;
45676;SDS011;31390;51.186;6.830;2023-01-25T00:38:59;24.90;;;22.40;;
45676;SDS011;31390;51.186;6.830;2023-01-25T00:41:26;25.83;;;23.33;;
45676;SDS011;31390;51.186;6.830;2023-01-25T00:43:52;25.07;;;22.57;;
45676;SDS011;31390;51.186;6.830;2023-01-25T00:46:19;26.97;;;24.37;;
45676;SDS011;31390;51.186;6.830;2023-01-25T00:48:46;25.10;;;22.70;;
45676;SDS011;31390;51.186;6.830;2023-01-25T00:51:12;26.33;;;23.80;;
45676;SDS011;31390;51.186;6.830;2023-01-25T00:53:39;25.97;;;23.47;;
45676;SDS011;31390;51.186;6.830;2023-01-25T00:56:05;27.53;;;24.83;;
45676;SDS011;31390;51.186;6.830;2023-01-25T00:58:33;26.07;;;23.43;;
45676;SDS011;31390;51.186;6.830;2023-01-25T01:00:59;25.63;;;23.17;;
45676;SDS011;31390;51.186;6.830;2023-01-25T01:03:26;26.43;;;23.77;;
45676;SDS011;31390;51.186;6.830;2023-01-25T01:06:03;26.83;;;24.13;;
45676;SDS011;31390;51.186;6.830;2023-01-25T01:08:32;25.90;;;23.43;;
45676;SDS011;31390;51.186;6.830;2023-01-25T01:11:01;26.23;;;23.57;;
45676;SDS011;31390;51.186;6.830;2023-01-25T01:13:28;24.93;;;22.53;;
45676;SDS011;31390;51.186;6.830;2023-01-25T01:15:55;25.83;;;23.17;;
45676;SDS011;31390;51.186;6.830;2023-01-25T01:18:22;26.50;;;23.97;;
45676;SDS011;31390;51.186;6.830;2023-01-25T01:20:52;24.43;;;22.10;;
45676;SDS011;31390;51.186;6.830;2023-01-25T01:23:19;26.97;;;24.27;;
45676;SDS011;31390;51.186;6.830;2023-01-25T01:25:46;25.83;;;23.23;;
45676;SDS011;31390;51.186;6.830;2023-01-25T01:28:13;26.27;;;23.63;;
45676;SDS011;31390;51.186;6.830;2023-01-25T01:30:39;24.77;;;22.03;;
45676;SDS011;31390;51.186;6.830;2023-01-25T01:33:06;24.13;;;21.83;;
45676;SDS011;31390;51.186;6.830;2023-01-25T01:35:32;25.40;;;22.90;;
45676;SDS011;31390;51.186;6.830;2023-01-25T01:37:58;24.83;;;22.23;;
45676;SDS011;31390;51.186;6.830;2023-01-25T01:40:25;25.90;;;23.30;;
45676;SDS011;31390;51.186;6.830;2023-01-25T01:43:02;25.50;;;23.00;;
45676;SDS011;31390;51.186;6.830;2023-01-25T01:50:46;28.27;;;25.27;;
45676;SDS011;31390;51.186;6.830;2023-01-25T01:53:16;26.63;;;24.03;;
45676;SDS011;31390;51.186;6.830;2023-01-25T01:55:43;28.50;;;25.70;;
45676;SDS011;31390;51.186;6.830;2023-01-25T01:58:09;32.10;;;28.70;;
45676;SDS011;31390;51.186;6.830;2023-01-25T02:00:37;26.97;;;24.17;;
45676;SDS011;31390;51.186;6.830;2023-01-25T02:03:06;29.10;;;26.10;;
45676;SDS011;31390;51.186;6.830;2023-01-25T02:05:39;28.73;;;25.90;;
45676;SDS011;31390;51.186;6.830;2023-01-25T02:08:09;30.10;;;26.93;;
45676;SDS011;31390;51.186;6.830;2023-01-25T02:10:41;29.50;;;26.50;;
45676;SDS011;31390;51.186;6.830;2023-01-25T02:13:09;29.70;;;26.53;;
45676;SDS011;31390;51.186;6.830;2023-01-25T02:15:37;31.67;;;28.33;;
45676;SDS011;31390;51.186;6.830;2023-01-25T02:18:05;29.83;;;26.77;;
45676;SDS011;31390;51.186;6.830;2023-01-25T02:20:35;29.87;;;26.77;;
45676;SDS011;31390;51.186;6.830;2023-01-25T02:25:36;28.23;;;25.33;;
45676;SDS011;31390;51.186;6.830;2023-01-25T02:28:04;29.10;;;26.10;;
45676;SDS011;31390;51.186;6.830;2023-01-25T02:30:34;28.80;;;25.87;;
45676;SDS011;31390;51.186;6.830;2023-01-25T02:33:02;29.77;;;26.67;;
45676;SDS011;31390;51.186;6.830;2023-01-25T02:35:37;30.23;;;27.07;;
45676;SDS011;31390;51.186;6.830;2023-01-25T02:38:04;31.80;;;28.53;;
45676;SDS011;31390;51.186;6.830;2023-01-25T02:40:35;30.50;;;27.30;;
45676;SDS011;31390;51.186;6.830;2023-01-25T02:43:05;30.53;;;27.37;;
45676;SDS011;31390;51.186;6.830;2023-01-25T02:45:33;30.63;;;27.43;;
45676;SDS011;31390;51.186;6.830;2023-01-25T02:48:00;32.97;;;29.37;;
45676;SDS011;31390;51.186;6.830;2023-01-25T02:50:28;31.33;;;28.07;;
45676;SDS011;31390;51.186;6.830;2023-01-25T02:52:55;34.20;;;30.67;;
45676;SDS011;31390;51.186;6.830;2023-01-25T02:55:22;34.13;;;30.60;;
45676;SDS011;31390;51.186;6.830;2023-01-25T02:57:49;32.03;;;28.37;;
45676;SDS011;31390;51.186;6.830;2023-01-25T03:00:17;29.63;;;26.57;;
45676;SDS011;31390;51.186;6.830;2023-01-25T03:02:45;26.60;;;23.90;;
45676;SDS011;31390;51.186;6.830;2023-01-25T03:05:12;26.63;;;23.83;;
45676;SDS011;31390;51.186;6.830;2023-01-25T03:07:42;28.80;;;25.73;;
45676;SDS011;31390;51.186;6.830;2023-01-25T03:10:09;28.50;;;25.60;;
45676;SDS011;31390;51.186;6.830;2023-01-25T03:12:37;28.77;;;25.77;;
45676;SDS011;31390;51.186;6.830;2023-01-25T03:15:05;29.13;;;26.07;;
45676;SDS011;31390;51.186;6.830;2023-01-25T03:17:34;27.60;;;24.77;;
45676;SDS011;31390;51.186;6.830;2023-01-25T03:20:04;27.97;;;25.17;;
45676;SDS011;31390;51.186;6.830;2023-01-25T03:22:32;29.67;;;26.57;;
45676;SDS011;31390;51.186;6.830;2023-01-25T03:24:59;31.80;;;28.40;;
45676;SDS011;31390;51.186;6.830;2023-01-25T03:27:28;30.57;;;27.43;;
45676;SDS011;31390;51.186;6.830;2023-01-25T03:30:08;31.70;;;28.47;;
45676;SDS011;31390;51.186;6.830;2023-01-25T03:32:40;30.63;;;27.50;;
45676;SDS011;31390;51.186;6.830;2023-01-25T03:35:11;30.80;;;27.57;;
45676;SDS011;31390;51.186;6.830;2023-01-25T03:37:41;33.47;;;29.90;;
45676;SDS011;31390;51.186;6.830;2023-01-25T03:40:10;31.10;;;27.80;;
45676;SDS011;31390;51.186;6.830;2023-01-25T03:42:42;30.53;;;27.33;;
45676;SDS011;31390;51.186;6.830;2023-01-25T03:45:10;33.33;;;29.70;;
45676;SDS011;31390;51.186;6.830;2023-01-25T03:47:40;34.30;;;30.67;;
45676;SDS011;31390;51.186;6.830;2023-01-25T03:50:08;36.30;;;31.57;;
45676;SDS011;31390;51.186;6.830;2023-01-25T03:52:36;31.70;;;28.27;;
45676;SDS011;31390;51.186;6.830;2023-01-25T03:55:10;33.33;;;29.70;;
45676;SDS011;31390;51.186;6.830;2023-01-25T03:57:40;32.87;;;29.30;;
45676;SDS011;31390;51.186;6.830;2023-01-25T04:00:10;33.93;;;29.83;;
45676;SDS011;31390;51.186;6.830;2023-01-25T04:02:44;35.60;;;29.53;;
45676;SDS011;31390;51.186;6.830;2023-01-25T04:05:14;33.57;;;29.57;;
45676;SDS011;31390;51.186;6.830;2023-01-25T04:07:41;34.47;;;29.83;;
45676;SDS011;31390;51.186;6.830;2023-01-25T04:10:11;38.40;;;32.53;;
45676;SDS011;31390;51.186;6.830;2023-01-25T04:12:43;37.27;;;32.07;;
45676;SDS011;31390;51.186;6.830;2023-01-25T04:15:11;39.17;;;34.60;;
45676;SDS011;31390;51.186;6.830;2023-01-25T04:17:38;38.27;;;32.53;;
45676;SDS011;31390;51.186;6.830;2023-01-25T04:20:17;34.77;;;29.73;;
45676;SDS011;31390;51.186;6.830;2023-01-25T04:22:44;35.00;;;31.13;;
45676;SDS011;31390;51.186;6.830;2023-01-25T04:25:12;36.63;;;31.07;;
45676;SDS011;31390;51.186;6.830;2023-01-25T04:27:47;35.07;;;29.97;;
45676;SDS011;31390;51.186;6.830;2023-01-25T04:30:17;39.30;;;33.00;;
45676;SDS011;31390;51.186;6.830;2023-01-25T04:32:45;41.90;;;35.07;;
45676;SDS011;31390;51.186;6.830;2023-01-25T04:35:28;43.57;;;36.13;;
45676;SDS011;31390;51.186;6.830;2023-01-25T04:37:59;37.80;;;33.17;;
45676;SDS011;31390;51.186;6.830;2023-01-25T04:40:33;38.80;;;32.93;;
45676;SDS011;31390;51.186;6.830;2023-01-25T04:42:59;41.30;;;33.70;;
45676;SDS011;31390;51.186;6.830;2023-01-25T04:45:28;40.27;;;34.13;;
45676;SDS011;31390;51.186;6.830;2023-01-25T04:47:57;38.83;;;33.23;;
45676;SDS011;31390;51.186;6.830;2023-01-25T04:50:25;42.40;;;35.07;;
45676;SDS011;31390;51.186;6.830;2023-01-25T04:52:52;40.70;;;33.30;;
45676;SDS011;31390;51.186;6.830;2023-01-25T04:55:22;41.30;;;34.27;;
45676;SDS011;31390;51.186;6.830;2023-01-25T04:57:51;42.63;;;35.43;;
45676;SDS011;31390;51.186;6.830;2023-01-25T05:00:18;42.03;;;33.67;;
45676;SDS011;31390;51.186;6.830;2023-01-25T05:02:47;38.57;;;33.47;;
45676;SDS011;31390;51.186;6.830;2023-01-25T05:05:14;38.57;;;31.93;;
45676;SDS011;31390;51.186;6.830;2023-01-25T05:07:44;39.40;;;33.17;;
45676;SDS011;31390;51.186;6.830;2023-01-25T05:10:11;40.43;;;33.33;;
45676;SDS011;31390;51.186;6.830;2023-01-25T05:12:52;40.30;;;34.70;;
45676;SDS011;31390;51.186;6.830;2023-01-25T05:15:19;39.17;;;33.83;;
45676;SDS011;31390;51.186;6.830;2023-01-25T05:17:46;40.77;;;34.40;;
45676;SDS011;31390;51.186;6.830;2023-01-25T05:20:14;40.53;;;34.57;;
45676;SDS011;31390;51.186;6.830;2023-01-25T05:22:42;38.93;;;33.53;;
45676;SDS011;31390;51.186;6.830;2023-01-25T05:25:10;39.53;;;32.97;;
45676;SDS011;31390;51.186;6.830;2023-01-25T05:27:58;41.30;;;34.50;;
45676;SDS011;31390;51.186;6.830;2023-01-25T05:30:55;40.33;;;34.23;;
45676;SDS011;31390;51.186;6.830;2023-01-25T05:33:25;41.63;;;35.30;;
45676;SDS011;31390;51.186;6.830;2023-01-25T05:35:52;40.87;;;35.30;;
45676;SDS011;31390;51.186;6.830;2023-01-25T05:38:19;43.30;;;36.07;;
45676;SDS011;31390;51.186;6.830;2023-01-25T05:40:46;37.53;;;33.03;;
45676;SDS011;31390;51.186;6.830;2023-01-25T05:43:14;38.90;;;32.63;;
45676;SDS011;31390;51.186;6.830;2023-01-25T05:45:40;40.67;;;34.10;;
45676;SDS011;31390;51.186;6.830;2023-01-25T05:48:09;39.47;;;34.53;;
45676;SDS011;31390;51.186;6.830;2023-01-25T05:50:37;44.63;;;36.63;;
45676;SDS011;31390;51.186;6.830;2023-01-25T05:53:09;43.53;;;35.27;;
45676;SDS011;31390;51.186;6.830;2023-01-25T05:55:37;43.53;;;35.47;;
45676;SDS011;31390;51.186;6.830;2023-01-25T05:58:08;44.13;;;36.97;;
45676;SDS011;31390;51.186;6.830;2023-01-25T06:00:38;43.87;;;36.37;;
45676;SDS011;31390;51.186;6.830;2023-01-25T06:03:06;44.17;;;36.83;;
45676;SDS011;31390;51.186;6.830;2023-01-25T06:05:35;44.13;;;36.63;;
45676;SDS011;31390;51.186;6.830;2023-01-25T06:08:02;45.13;;;36.87;;
45676;SDS011;31390;51.186;6.830;2023-01-25T06:10:42;38.20;;;32.97;;
45676;SDS011;31390;51.186;6.830;2023-01-25T06:13:10;40.07;;;33.87;;
45676;SDS011;31390;51.186;6.830;2023-01-25T06:15:38;40.23;;;33.43;;
45676;SDS011;31390;51.186;6.830;2023-01-25T06:18:28;41.50;;;33.80;;
45676;SDS011;31390;51.186;6.830;2023-01-25T06:21:15;41.40;;;34.23;;
45676;SDS011;31390;51.186;6.830;2023-01-25T06:23:41;43.27;;;35.57;;
45676;SDS011;31390;51.186;6.830;2023-01-25T06:26:12;36.90;;;32.23;;
45676;SDS011;31390;51.186;6.830;2023-01-25T06:28:40;39.73;;;34.00;;
45676;SDS011;31390;51.186;6.830;2023-01-25T06:31:11;39.10;;;32.67;;
45676;SDS011;31390;51.186;6.830;2023-01-25T06:33:38;39.10;;;32.87;;
45676;SDS011;31390;51.186;6.830;2023-01-25T06:36:08;38.67;;;32.23;;
45676;SDS011;31390;51.186;6.830;2023-01-25T06:38:36;40.57;;;33.67;;
45676;SDS011;31390;51.186;6.830;2023-01-25T06:41:04;39.30;;;32.60;;
45676;SDS011;31390;51.186;6.830;2023-01-25T06:43:37;38.53;;;32.93;;
45676;SDS011;31390;51.186;6.830;2023-01-25T06:46:08;38.10;;;32.70;;
45676;SDS011;31390;51.186;6.830;2023-01-25T06:48:38;37.83;;;32.70;;
45676;SDS011;31390;51.186;6.830;2023-01-25T06:51:07;39.63;;;32.90;;
45676;SDS011;31390;51.186;6.830;2023-01-25T06:53:36;35.63;;;30.87;;
45676;SDS011;31390;51.186;6.830;2023-01-25T06:56:06;36.27;;;31.73;;
45676;SDS011;31390;51.186;6.830;2023-01-25T06:58:37;39.03;;;33.97;;
45676;SDS011;31390;51.186;6.830;2023-01-25T07:01:05;38.40;;;32.77;;
45676;SDS011;31390;51.186;6.830;2023-01-25T07:03:32;39.67;;;33.60;;
45676;SDS011;31390;51.186;6.830;2023-01-25T07:06:01;37.80;;;32.93;;
45676;SDS011;31390;51.186;6.830;2023-01-25T07:08:30;41.17;;;34.40;;
45676;SDS011;31390;51.186;6.830;2023-01-25T07:11:02;42.17;;;35.03;;
45676;SDS011;31390;51.186;6.830;2023-01-25T07:13:29;42.50;;;34.47;;
45676;SDS011;31390;51.186;6.830;2023-01-25T07:16:01;46.37;;;36.57;;
45676;SDS011;31390;51.186;6.830;2023-01-25T07:18:28;45.43;;;36.37;;
45676;SDS011;31390;51.186;6.830;2023-01-25T07:21:01;41.40;;;34.20;;
45676;SDS011;31390;51.186;6.830;2023-01-25T07:23:29;41.67;;;34.40;;
45676;SDS011;31390;51.186;6.830;2023-01-25T07:25:57;41.67;;;34.40;;
45676;SDS011;31390;51.186;6.830;2023-01-25T07:28:23;42.67;;;34.63;;
45676;SDS011;31390;51.186;6.830;2023-01-25T07:30:50;44.37;;;35.27;;
45676;SDS011;31390;51.186;6.830;2023-01-25T07:33:17;40.53;;;34.33;;
45676;SDS011;31390;51.186;6.830;2023-01-25T07:35:43;44.73;;;36.80;;
45676;SDS011;31390;51.186;6.830;2023-01-25T07:38:10;41.70;;;34.60;;
45676;SDS011;31390;51.186;6.830;2023-01-25T07:40:39;44.83;;;36.73;;
45676;SDS011;31390;51.186;6.830;2023-01-25T07:43:06;48.60;;;40.30;;
45676;SDS011;31390;51.186;6.830;2023-01-25T07:45:35;43.67;;;36.80;;
45676;SDS011;31390;51.186;6.830;2023-01-25T07:48:07;47.77;;;38.87;;
45676;SDS011;31390;51.186;6.830;2023-01-25T07:50:34;45.83;;;37.87;;
45676;SDS011;31390;51.186;6.830;2023-01-25T07:53:00;45.37;;;36.67;;
45676;SDS011;31390;51.186;6.830;2023-01-25T07:55:27;40.73;;;34.73;;
45676;SDS011;31390;51.186;6.830;2023-01-25T07:57:53;46.37;;;38.27;;
45676;SDS011;31390;51.186;6.830;2023-01-25T08:00:22;45.57;;;36.77;;
45676;SDS011;31390;51.186;6.830;2023-01-25T08:02:50;51.33;;;40.27;;
45676;SDS011;31390;51.186;6.830;2023-01-25T08:05:17;46.83;;;38.40;;
45676;SDS011;31390;51.186;6.830;2023-01-25T08:07:44;43.43;;;36.50;;
45676;SDS011;31390;51.186;6.830;2023-01-25T08:10:11;52.10;;;40.33;;
45676;SDS011;31390;51.186;6.830;2023-01-25T08:12:38;51.10;;;40.10;;
45676;SDS011;31390;51.186;6.830;2023-01-25T08:15:06;47.37;;;39.77;;
45676;SDS011;31390;51.186;6.830;2023-01-25T08:17:34;47.63;;;38.73;;
45676;SDS011;31390;51.186;6.830;2023-01-25T08:20:00;49.47;;;40.47;;
45676;SDS011;31390;51.186;6.830;2023-01-25T08:22:27;48.50;;;38.73;;
45676;SDS011;31390;51.186;6.830;2023-01-25T08:24:53;49.90;;;39.07;;
45676;SDS011;31390;51.186;6.830;2023-01-25T08:27:21;50.77;;;39.50;;
45676;SDS011;31390;51.186;6.830;2023-01-25T08:29:49;48.70;;;38.83;;
45676;SDS011;31390;51.186;6.830;2023-01-25T08:32:16;47.10;;;38.80;;
45676;SDS011;31390;51.186;6.830;2023-01-25T08:34:42;49.13;;;39.13;;
45676;SDS011;31390;51.186;6.830;2023-01-25T08:37:09;48.67;;;38.87;;
45676;SDS011;31390;51.186;6.830;2023-01-25T08:39:36;50.83;;;40.30;;
45676;SDS011;31390;51.186;6.830;2023-01-25T08:42:02;53.10;;;40.97;;
45676;SDS011;31390;51.186;6.830;2023-01-25T08:44:29;46.57;;;38.47;;
45676;SDS011;31390;51.186;6.830;2023-01-25T08:46:55;49.83;;;40.40;;
45676;SDS011;31390;51.186;6.830;2023-01-25T08:49:24;49.43;;;40.50;;
45676;SDS011;31390;51.186;6.830;2023-01-25T08:51:52;48.50;;;41.20;;
45676;SDS011;31390;51.186;6.830;2023-01-25T08:54:19;48.20;;;40.27;;
45676;SDS011;31390;51.186;6.830;2023-01-25T08:56:45;52.77;;;40.83;;
45676;SDS011;31390;51.186;6.830;2023-01-25T08:59:12;49.37;;;40.60;;
45676;SDS011;31390;51.186;6.830;2023-01-25T09:01:39;47.87;;;39.07;;
45676;SDS011;31390;51.186;6.830;2023-01-25T09:04:05;49.67;;;39.17;;
45676;SDS011;31390;51.186;6.830;2023-01-25T09:06:32;49.47;;;39.80;;
45676;SDS011;31390;51.186;6.830;2023-01-25T09:08:59;50.37;;;39.17;;
45676;SDS011;31390;51.186;6.830;2023-01-25T09:11:26;54.03;;;40.80;;
45676;SDS011;31390;51.186;6.830;2023-01-25T09:13:52;48.43;;;39.63;;
45676;SDS011;31390;51.186;6.830;2023-01-25T09:16:20;53.10;;;40.90;;
45676;SDS011;31390;51.186;6.830;2023-01-25T09:18:54;50.93;;;40.33;;
45676;SDS011;31390;51.186;6.830;2023-01-25T09:21:21;56.83;;;41.93;;
45676;SDS011;31390;51.186;6.830;2023-01-25T09:23:48;50.40;;;39.80;;
45676;SDS011;31390;51.186;6.830;2023-01-25T09:26:23;53.13;;;42.17;;
45676;SDS011;31390;51.186;6.830;2023-01-25T09:28:50;50.93;;;39.13;;
45676;SDS011;31390;51.186;6.830;2023-01-25T09:31:17;54.77;;;40.07;;
45676;SDS011;31390;51.186;6.830;2023-01-25T09:34:17;53.80;;;41.37;;
45676;SDS011;31390;51.186;6.830;2023-01-25T09:36:43;46.60;;;38.23;;
45676;SDS011;31390;51.186;6.830;2023-01-25T09:39:10;48.93;;;39.33;;
45676;SDS011;31390;51.186;6.830;2023-01-25T09:44:29;56.20;;;41.17;;
45676;SDS011;31390;51.186;6.830;2023-01-25T09:46:54;54.10;;;39.90;;
45676;SDS011;31390;51.186;6.830;2023-01-25T09:54:36;53.20;;;39.03;;
45676;SDS011;31390;51.186;6.830;2023-01-25T09:57:15;50.33;;;38.63;;
45676;SDS011;31390;51.186;6.830;2023-01-25T09:59:43;53.90;;;38.87;;
45676;SDS011;31390;51.186;6.830;2023-01-25T10:04:56;50.40;;;38.60;;
45676;SDS011;31390;51.186;6.830;2023-01-25T10:10:34;51.13;;;37.33;;
45676;SDS011;31390;51.186;6.830;2023-01-25T10:13:02;53.40;;;39.27;;
45676;SDS011;31390;51.186;6.830;2023-01-25T10:15:30;51.37;;;38.77;;
45676;SDS011;31390;51.186;6.830;2023-01-25T10:18:07;52.97;;;39.13;;
45676;SDS011;31390;51.186;6.830;2023-01-25T10:33:14;53.57;;;40.00;;
45676;SDS011;31390;51.186;6.830;2023-01-25T10:35:42;51.40;;;37.27;;
45676;SDS011;31390;51.186;6.830;2023-01-25T10:38:35;51.03;;;37.83;;
45676;SDS011;31390;51.186;6.830;2023-01-25T10:41:09;54.20;;;39.00;;
45676;SDS011;31390;51.186;6.830;2023-01-25T10:43:40;52.73;;;38.87;;
45676;SDS011;31390;51.186;6.830;2023-01-25T10:46:17;51.00;;;38.70;;
45676;SDS011;31390;51.186;6.830;2023-01-25T10:48:45;50.37;;;36.83;;
45676;SDS011;31390;51.186;6.830;2023-01-25T10:51:27;51.27;;;36.97;;
45676;SDS011;31390;51.186;6.830;2023-01-25T10:54:01;51.77;;;37.03;;
45676;SDS011;31390;51.186;6.830;2023-01-25T10:56:29;49.20;;;37.03;;
45676;SDS011;31390;51.186;6.830;2023-01-25T11:01:42;51.67;;;37.87;;
45676;SDS011;31390;51.186;6.830;2023-01-25T11:06:54;48.70;;;36.27;;
45676;SDS011;31390;51.186;6.830;2023-01-25T11:11:54;49.50;;;36.27;;
45676;SDS011;31390;51.186;6.830;2023-01-25T11:14:22;53.37;;;40.33;;
45676;SDS011;31390;51.186;6.830;2023-01-25T11:16:49;48.20;;;35.90;;
45676;SDS011;31390;51.186;6.830;2023-01-25T11:19:35;44.53;;;35.47;;
45676;SDS011;31390;51.186;6.830;2023-01-25T11:22:04;53.10;;;38.17;;
45676;SDS011;31390;51.186;6.830;2023-01-25T11:24:34;49.37;;;36.43;;
45676;SDS011;31390;51.186;6.830;2023-01-25T11:27:11;48.17;;;35.80;;
45676;SDS011;31390;51.186;6.830;2023-01-25T11:29:38;48.80;;;36.60;;
45676;SDS011;31390;51.186;6.830;2023-01-25T11:32:12;46.13;;;35.77;;
45676;SDS011;31390;51.186;6.830;2023-01-25T11:34:40;49.83;;;35.23;;
45676;SDS011;31390;51.186;6.830;2023-01-25T11:37:30;47.53;;;35.40;;
45676;SDS011;31390;51.186;6.830;2023-01-25T11:40:18;47.30;;;35.77;;
45676;SDS011;31390;51.186;6.830;2023-01-25T11:42:55;45.87;;;34.60;;
45676;SDS011;31390;51.186;6.830;2023-01-25T11:51:24;50.20;;;38.27;;
45676;SDS011;31390;51.186;6.830;2023-01-25T12:19:32;46.00;;;35.97;;
45676;SDS011;31390;51.186;6.830;2023-01-25T12:32:44;45.63;;;34.03;;
45676;SDS011;31390;51.186;6.830;2023-01-25T12:37:52;47.90;;;34.27;;
45676;SDS011;31390;51.186;6.830;2023-01-25T12:40:21;44.00;;;33.13;;
45676;SDS011;31390;51.186;6.830;2023-01-25T12:42:51;47.60;;;35.37;;
45676;SDS011;31390;51.186;6.830;2023-01-25T12:45:26;45.73;;;33.37;;
45676;SDS011;31390;51.186;6.830;2023-01-25T12:50:31;47.83;;;34.77;;
45676;SDS011;31390;51.186;6.830;2023-01-25T12:53:08;45.83;;;33.90;;
45676;SDS011;31390;51.186;6.830;2023-01-25T12:55:35;47.83;;;34.63;;
45676;SDS011;31390;51.186;6.830;2023-01-25T13:06:35;49.60;;;35.60;;
45676;SDS011;31390;51.186;6.830;2023-01-25T13:09:02;48.23;;;36.33;;
45676;SDS011;31390;51.186;6.830;2023-01-25T13:11:34;50.73;;;36.40;;
45676;SDS011;31390;51.186;6.830;2023-01-25T13:16:54;47.17;;;34.23;;
45676;SDS011;31390;51.186;6.830;2023-01-25T13:22:12;49.73;;;36.37;;
45676;SDS011;31390;51.186;6.830;2023-01-25T13:27:31;53.97;;;37.97;;
45676;SDS011;31390;51.186;6.830;2023-01-25T13:35:28;56.03;;;36.53;;
45676;SDS011;31390;51.186;6.830;2023-01-25T13:38:00;54.90;;;37.50;;
45676;SDS011;31390;51.186;6.830;2023-01-25T13:40:36;58.20;;;37.97;;
45676;SDS011;31390;51.186;6.830;2023-01-25T13:43:25;58.30;;;38.77;;
45676;SDS011;31390;51.186;6.830;2023-01-25T13:45:53;60.43;;;39.40;;
45676;SDS011;31390;51.186;6.830;2023-01-25T13:48:21;57.50;;;37.17;;
45676;SDS011;31390;51.186;6.830;2023-01-25T13:50:59;55.23;;;37.30;;
45676;SDS011;31390;51.186;6.830;2023-01-25T13:53:29;56.33;;;37.23;;
45676;SDS011;31390;51.186;6.830;2023-01-25T13:56:00;58.17;;;38.73;;
45676;SDS011;31390;51.186;6.830;2023-01-25T13:58:29;59.87;;;37.83;;
45676;SDS011;31390;51.186;6.830;2023-01-25T14:01:01;62.40;;;39.03;;
45676;SDS011;31390;51.186;6.830;2023-01-25T14:03:46;57.50;;;37.83;;
45676;SDS011;31390;51.186;6.830;2023-01-25T14:08:46;53.20;;;36.10;;
45676;SDS011;31390;51.186;6.830;2023-01-25T14:11:20;54.90;;;37.67;;
45676;SDS011;31390;51.186;6.830;2023-01-25T14:13:57;56.97;;;37.07;;
45676;SDS011;31390;51.186;6.830;2023-01-25T14:16:25;65.03;;;39.87;;
45676;SDS011;31390;51.186;6.830;2023-01-25T14:18:56;63.93;;;38.90;;
45676;SDS011;31390;51.186;6.830;2023-01-25T14:21:23;62.20;;;38.70;;
45676;SDS011;31390;51.186;6.830;2023-01-25T14:23:52;57.13;;;38.90;;
45676;SDS011;31390;51.186;6.830;2023-01-25T14:26:21;61.17;;;39.33;;
45676;SDS011;31390;51.186;6.830;2023-01-25T14:28:55;59.10;;;38.57;;
45676;SDS011;31390;51.186;6.830;2023-01-25T14:31:35;57.60;;;39.53;;
45676;SDS011;31390;51.186;6.830;2023-01-25T14:34:02;61.30;;;39.17;;
45676;SDS011;31390;51.186;6.830;2023-01-25T14:36:31;57.93;;;37.77;;
45676;SDS011;31390;51.186;6.830;2023-01-25T14:39:00;59.83;;;38.67;;
45676;SDS011;31390;51.186;6.830;2023-01-25T14:41:36;63.03;;;40.27;;
45676;SDS011;31390;51.186;6.830;2023-01-25T14:44:24;63.20;;;40.60;;
45676;SDS011;31390;51.186;6.830;2023-01-25T14:47:38;66.63;;;43.47;;
45676;SDS011;31390;51.186;6.830;2023-01-25T14:49:40;59.87;;;38.97;;
45676;SDS011;31390;51.186;6.830;2023-01-25T14:52:09;62.77;;;40.60;;
45676;SDS011;31390;51.186;6.830;2023-01-25T14:54:55;63.10;;;39.23;;
45676;SDS011;31390;51.186;6.830;2023-01-25T14:57:35;62.50;;;38.87;;
45676;SDS011;31390;51.186;6.830;2023-01-25T15:00:04;59.23;;;37.90;;
45676;SDS011;31390;51.186;6.830;2023-01-25T15:02:39;63.07;;;38.90;;
45676;SDS011;31390;51.186;6.830;2023-01-25T15:07:51;63.03;;;39.33;;
45676;SDS011;31390;51.186;6.830;2023-01-25T15:15:58;61.33;;;38.60;;
45676;SDS011;31390;51.186;6.830;2023-01-25T15:21:31;57.13;;;37.63;;
45676;SDS011;31390;51.186;6.830;2023-01-25T15:23:58;59.60;;;38.97;;
45676;SDS011;31390;51.186;6.830;2023-01-25T15:26:30;59.10;;;37.27;;
45676;SDS011;31390;51.186;6.830;2023-01-25T15:28:58;57.60;;;38.30;;
45676;SDS011;31390;51.186;6.830;2023-01-25T15:31:26;58.23;;;37.77;;
45676;SDS011;31390;51.186;6.830;2023-01-25T15:33:53;62.27;;;37.33;;
45676;SDS011;31390;51.186;6.830;2023-01-25T15:36:20;59.87;;;38.10;;
45676;SDS011;31390;51.186;6.830;2023-01-25T15:38:47;52.73;;;35.70;;
45676;SDS011;31390;51.186;6.830;2023-01-25T15:41:14;58.10;;;35.87;;
45676;SDS011;31390;51.186;6.830;2023-01-25T15:43:40;58.03;;;37.23;;
45676;SDS011;31390;51.186;6.830;2023-01-25T15:46:10;57.30;;;36.83;;
45676;SDS011;31390;51.186;6.830;2023-01-25T15:48:40;56.17;;;35.10;;
45676;SDS011;31390;51.186;6.830;2023-01-25T15:51:07;50.67;;;33.53;;
45676;SDS011;31390;51.186;6.830;2023-01-25T15:53:34;55.07;;;35.20;;
45676;SDS011;31390;51.186;6.830;2023-01-25T15:56:01;59.07;;;36.23;;
45676;SDS011;31390;51.186;6.830;2023-01-25T15:58:30;55.30;;;36.40;;
45676;SDS011;31390;51.186;6.830;2023-01-25T16:00:58;60.03;;;37.67;;
45676;SDS011;31390;51.186;6.830;2023-01-25T16:03:26;56.37;;;35.93;;
45676;SDS011;31390;51.186;6.830;2023-01-25T16:05:55;58.80;;;37.83;;
45676;SDS011;31390;51.186;6.830;2023-01-25T16:08:22;52.53;;;33.27;;
45676;SDS011;31390;51.186;6.830;2023-01-25T16:10:48;52.07;;;33.07;;
45676;SDS011;31390;51.186;6.830;2023-01-25T16:13:15;59.53;;;37.00;;
45676;SDS011;31390;51.186;6.830;2023-01-25T16:15:41;59.80;;;37.40;;
45676;SDS011;31390;51.186;6.830;2023-01-25T16:18:11;53.77;;;35.63;;
45676;SDS011;31390;51.186;6.830;2023-01-25T16:20:39;60.57;;;36.93;;
45676;SDS011;31390;51.186;6.830;2023-01-25T16:23:05;55.20;;;35.97;;
45676;SDS011;31390;51.186;6.830;2023-01-25T16:25:33;59.37;;;38.57;;
45676;SDS011;31390;51.186;6.830;2023-01-25T16:28:00;60.73;;;37.53;;
45676;SDS011;31390;51.186;6.830;2023-01-25T16:30:26;55.43;;;35.73;;
45676;SDS011;31390;51.186;6.830;2023-01-25T16:32:56;53.47;;;34.40;;
45676;SDS011;31390;51.186;6.830;2023-01-25T16:35:22;51.03;;;33.90;;
45676;SDS011;31390;51.186;6.830;2023-01-25T16:37:49;51.17;;;32.47;;
45676;SDS011;31390;51.186;6.830;2023-01-25T16:40:23;54.17;;;34.20;;
45676;SDS011;31390;51.186;6.830;2023-01-25T16:42:50;53.83;;;34.30;;
45676;SDS011;31390;51.186;6.830;2023-01-25T16:45:17;53.47;;;35.47;;
45676;SDS011;31390;51.186;6.830;2023-01-25T16:47:45;50.07;;;32.77;;
45676;SDS011;31390;51.186;6.830;2023-01-25T16:50:16;50.90;;;33.50;;